createdAt,value
2018-05-07T00:01:03.700Z,2.50
2018-05-07T00:03:32.348Z,2.50
2018-05-07T00:06:00.793Z,2.47
2018-05-07T00:08:29.198Z,2.47
2018-05-07T00:10:57.491Z,2.70
2018-05-07T00:13:26.499Z,2.67
2018-05-07T00:15:55.396Z,2.40
2018-05-07T00:18:23.775Z,2.60
2018-05-07T00:20:52.153Z,2.53
2018-05-07T00:23:20.448Z,2.27
2018-05-07T00:25:49.063Z,2.97
2018-05-07T00:28:18.605Z,3.00
2018-05-07T00:30:46.932Z,3.27
2018-05-07T00:33:16.581Z,2.40
2018-05-07T00:35:45.480Z,2.80
2018-05-07T00:38:13.764Z,2.80
2018-05-07T00:40:42.775Z,2.53
2018-05-07T00:43:11.065Z,3.30
2018-05-07T00:45:39.347Z,2.90
2018-05-07T00:48:07.673Z,2.70
2018-05-07T00:50:37.588Z,2.60
2018-05-07T00:53:06.810Z,2.23
2018-05-07T00:55:35.685Z,2.70
2018-05-07T00:58:03.968Z,2.63
2018-05-07T01:00:32.251Z,3.10
2018-05-07T01:03:01.125Z,3.37
2018-05-07T01:05:29.407Z,2.87
2018-05-07T01:07:57.759Z,3.10
2018-05-07T01:10:26.235Z,2.87
2018-05-07T01:12:54.698Z,3.90
2018-05-07T01:15:23.069Z,3.20
2018-05-07T01:17:51.352Z,2.63
2018-05-07T01:20:19.638Z,2.83
2018-05-07T01:22:47.938Z,2.10
2018-05-07T01:25:16.219Z,2.63
2018-05-07T01:27:45.015Z,3.50
2018-05-07T01:30:13.303Z,2.60
2018-05-07T01:32:41.626Z,2.80
2018-05-07T01:35:09.917Z,3.50
2018-05-07T01:37:38.211Z,3.20
2018-05-07T01:40:06.554Z,3.00
2018-05-07T01:42:34.834Z,2.80
2018-05-07T01:45:03.109Z,2.83
2018-05-07T01:47:31.419Z,2.80
2018-05-07T01:50:00.074Z,2.87
2018-05-07T01:52:28.354Z,3.23
2018-05-07T01:54:57.107Z,2.80
2018-05-07T01:57:25.953Z,3.10
2018-05-07T01:59:54.308Z,2.77
2018-05-07T02:02:23.285Z,3.10
2018-05-07T02:04:52.377Z,3.37
2018-05-07T02:07:21.518Z,3.07
2018-05-07T02:09:50.612Z,3.20
2018-05-07T02:12:20.529Z,3.23
2018-05-07T02:14:49.602Z,3.20
2018-05-07T02:17:19.520Z,2.87
2018-05-07T02:19:48.589Z,2.47
2018-05-07T02:22:16.991Z,2.87
2018-05-07T02:24:46.005Z,2.90
2018-05-07T02:27:15.149Z,4.00
2018-05-07T02:29:44.366Z,3.23
2018-05-07T02:32:12.647Z,3.50
2018-05-07T02:34:41.699Z,2.97
2018-05-07T02:37:10.309Z,2.33
2018-05-07T02:39:39.715Z,3.00
2018-05-07T02:42:09.627Z,2.77
2018-05-07T02:44:38.115Z,2.80
2018-05-07T02:47:06.399Z,3.20
2018-05-07T02:49:34.846Z,2.97
2018-05-07T02:52:03.179Z,3.10
2018-05-07T02:54:31.910Z,2.50
2018-05-07T02:57:00.976Z,3.00
2018-05-07T02:59:29.375Z,3.97
2018-05-07T03:01:58.290Z,3.20
2018-05-07T03:04:26.644Z,3.70
2018-05-07T03:06:55.110Z,3.40
2018-05-07T03:09:23.386Z,3.50
2018-05-07T03:11:52.251Z,2.80
2018-05-07T03:14:20.551Z,3.50
2018-05-07T03:16:48.914Z,2.70
2018-05-07T03:19:17.218Z,3.60
2018-05-07T03:21:46.543Z,3.53
2018-05-07T03:24:14.912Z,2.93
2018-05-07T03:26:43.199Z,2.70
2018-05-07T03:29:11.474Z,3.33
2018-05-07T03:31:40.322Z,3.00
2018-05-07T03:34:09.085Z,2.87
2018-05-07T03:36:38.128Z,3.40
2018-05-07T03:39:06.446Z,2.80
2018-05-07T03:41:34.731Z,2.80
2018-05-07T03:44:03.806Z,2.60
2018-05-07T03:46:32.366Z,3.20
2018-05-07T03:49:01.075Z,2.80
2018-05-07T03:51:29.738Z,3.50
2018-05-07T03:53:58.018Z,3.50
2018-05-07T03:56:26.302Z,3.27
2018-05-07T03:58:54.638Z,3.93
2018-05-07T04:01:23.315Z,3.70
2018-05-07T04:03:51.910Z,3.73
2018-05-07T04:06:20.215Z,3.77
2018-05-07T04:08:48.800Z,3.60
2018-05-07T04:11:17.656Z,2.90
2018-05-07T04:13:45.990Z,3.60
2018-05-07T04:16:31.847Z,3.53
2018-05-07T04:19:17.650Z,4.30
2018-05-07T04:22:03.415Z,4.27
2018-05-07T04:24:31.889Z,3.60
2018-05-07T04:27:00.670Z,3.20
2018-05-07T04:29:28.968Z,3.93
2018-05-07T04:31:57.273Z,4.40
2018-05-07T04:34:25.578Z,3.13
2018-05-07T04:36:54.034Z,3.63
2018-05-07T04:39:22.354Z,3.50
2018-05-07T04:41:50.630Z,3.57
2018-05-07T04:44:18.926Z,3.90
2018-05-07T04:46:47.255Z,4.23
2018-05-07T04:49:15.927Z,3.83
2018-05-07T04:51:45.205Z,4.50
2018-05-07T04:54:13.626Z,3.60
2018-05-07T04:56:42.567Z,3.80
2018-05-07T04:59:11.714Z,3.93
2018-05-07T05:01:40.331Z,4.47
2018-05-07T05:04:08.978Z,5.33
2018-05-07T05:06:38.102Z,4.57
2018-05-07T05:09:07.228Z,4.60
2018-05-07T05:11:36.438Z,4.50
2018-05-07T05:14:05.506Z,4.40
2018-05-07T05:16:34.630Z,4.63
2018-05-07T05:19:03.719Z,4.00
2018-05-07T05:21:32.695Z,4.00
2018-05-07T05:24:01.001Z,3.97
2018-05-07T05:26:31.227Z,3.80
2018-05-07T05:28:59.733Z,4.33
2018-05-07T05:31:28.746Z,4.23
2018-05-07T05:33:57.074Z,4.10
2018-05-07T05:36:25.735Z,3.63
2018-05-07T05:38:54.060Z,4.70
2018-05-07T05:41:22.739Z,4.00
2018-05-07T05:43:52.455Z,4.50
2018-05-07T05:46:20.779Z,4.87
2018-05-07T05:48:49.097Z,4.30
2018-05-07T05:51:17.936Z,4.30
2018-05-07T05:53:46.312Z,3.93
2018-05-07T05:56:14.945Z,3.57
2018-05-07T05:58:43.174Z,4.03
2018-05-07T06:01:11.623Z,4.33
2018-05-07T06:03:40.592Z,3.97
2018-05-07T06:06:08.862Z,4.33
2018-05-07T06:08:37.614Z,3.53
2018-05-07T06:11:05.967Z,3.83
2018-05-07T06:13:34.251Z,4.60
2018-05-07T06:16:02.731Z,4.10
2018-05-07T06:18:31.026Z,3.97
2018-05-07T06:20:59.305Z,4.70
2018-05-07T06:23:27.634Z,3.87
2018-05-07T06:25:55.910Z,4.30
2018-05-07T06:28:24.710Z,4.27
2018-05-07T06:30:53.075Z,3.70
2018-05-07T06:33:21.830Z,3.83
2018-05-07T06:35:50.116Z,3.17
2018-05-07T06:38:18.470Z,4.10
2018-05-07T06:40:46.864Z,3.63
2018-05-07T06:43:15.594Z,4.00
2018-05-07T06:45:44.082Z,3.43
2018-05-07T06:48:13.455Z,4.73
2018-05-07T06:50:42.423Z,3.77
2018-05-07T06:53:11.755Z,4.40
2018-05-07T06:55:40.034Z,3.20
2018-05-07T06:58:08.311Z,3.37
2018-05-07T07:00:36.651Z,2.90
2018-05-07T07:03:04.938Z,3.87
2018-05-07T07:05:33.219Z,3.40
2018-05-07T07:08:02.303Z,3.63
2018-05-07T07:10:30.535Z,4.10
2018-05-07T07:12:58.816Z,3.50
2018-05-07T07:15:27.626Z,4.23
2018-05-07T07:17:56.381Z,4.17
2018-05-07T07:20:25.883Z,3.10
2018-05-07T07:22:54.636Z,3.93
2018-05-07T07:25:22.913Z,4.07
2018-05-07T07:27:51.197Z,3.90
2018-05-07T07:30:19.542Z,4.43
2018-05-07T07:32:48.588Z,4.00
2018-05-07T07:35:17.146Z,4.33
2018-05-07T07:37:45.635Z,3.60
2018-05-07T07:40:13.906Z,3.70
2018-05-07T07:42:42.206Z,3.67
2018-05-07T07:45:10.523Z,4.70
2018-05-07T07:47:38.871Z,3.90
2018-05-07T07:50:07.453Z,4.33
2018-05-07T07:52:35.938Z,3.50
2018-05-07T07:55:04.223Z,3.77
2018-05-07T07:57:32.683Z,3.80
2018-05-07T08:00:00.998Z,3.47
2018-05-07T08:02:29.579Z,3.80
2018-05-07T08:04:57.859Z,3.20
2018-05-07T08:07:28.126Z,3.10
2018-05-07T08:09:56.420Z,4.10
2018-05-07T08:12:25.480Z,3.50
2018-05-07T08:14:54.279Z,3.53
2018-05-07T08:17:23.905Z,4.37
2018-05-07T08:19:52.607Z,4.70
2018-05-07T08:22:20.999Z,4.00
2018-05-07T08:24:49.479Z,3.50
2018-05-07T08:27:17.771Z,3.80
2018-05-07T08:29:46.067Z,3.40
2018-05-07T08:32:14.387Z,3.37
2018-05-07T08:34:42.662Z,3.70
2018-05-07T08:37:11.062Z,4.03
2018-05-07T08:39:39.943Z,4.13
2018-05-07T08:42:08.225Z,3.40
2018-05-07T08:44:36.730Z,4.30
2018-05-07T08:47:05.511Z,3.20
2018-05-07T08:49:33.798Z,3.97
2018-05-07T08:52:02.077Z,3.33
2018-05-07T08:54:30.577Z,3.47
2018-05-07T08:56:58.871Z,3.33
2018-05-07T08:59:27.150Z,3.67
2018-05-07T09:01:55.721Z,3.57
2018-05-07T09:04:24.017Z,3.50
2018-05-07T09:06:52.625Z,3.27
2018-05-07T09:09:21.211Z,3.00
2018-05-07T09:11:49.486Z,3.67
2018-05-07T09:14:17.763Z,3.27
2018-05-07T09:16:46.090Z,3.90
2018-05-07T09:19:15.133Z,3.33
2018-05-07T09:21:43.806Z,3.77
2018-05-07T09:24:12.191Z,5.03
2018-05-07T09:26:40.471Z,2.80
2018-05-07T09:29:09.570Z,3.40
2018-05-07T09:31:37.921Z,3.53
2018-05-07T09:34:06.255Z,3.83
2018-05-07T09:36:34.835Z,3.70
2018-05-07T09:39:03.154Z,3.23
2018-05-07T09:41:31.861Z,4.67
2018-05-07T09:44:01.070Z,3.63
2018-05-07T09:46:29.382Z,3.30
2018-05-07T09:48:57.692Z,3.47
2018-05-07T09:51:25.951Z,3.87
2018-05-07T09:53:54.271Z,3.23
2018-05-07T09:56:22.311Z,4.10
2018-05-07T09:58:58.320Z,3.20
2018-05-07T10:01:26.930Z,3.20
2018-05-07T10:03:55.210Z,3.47
2018-05-07T10:06:23.534Z,2.73
2018-05-07T10:08:51.819Z,3.03
2018-05-07T10:11:20.367Z,4.00
2018-05-07T10:13:48.714Z,3.50
2018-05-07T10:16:17.090Z,4.33
2018-05-07T10:18:45.375Z,3.30
2018-05-07T10:21:13.695Z,3.30
2018-05-07T10:23:42.398Z,3.47
2018-05-07T10:26:10.675Z,3.17
2018-05-07T10:28:39.767Z,3.80
2018-05-07T10:31:08.084Z,2.83
2018-05-07T10:33:36.370Z,2.93
2018-05-07T10:36:04.767Z,3.80
2018-05-07T10:38:33.744Z,3.00
2018-05-07T10:41:02.023Z,3.20
2018-05-07T10:43:30.367Z,3.57
2018-05-07T10:45:58.871Z,3.33
2018-05-07T10:48:27.150Z,3.20
2018-05-07T10:50:55.936Z,3.03
2018-05-07T10:53:24.283Z,3.10
2018-05-07T10:55:52.566Z,3.00
2018-05-07T10:58:20.886Z,2.80
2018-05-07T11:00:49.161Z,3.27
2018-05-07T11:03:17.442Z,3.37
2018-05-07T11:05:45.751Z,3.10
2018-05-07T11:08:14.570Z,3.00
2018-05-07T11:10:43.754Z,3.10
2018-05-07T11:13:12.119Z,3.43
2018-05-07T11:15:40.695Z,3.50
2018-05-07T11:18:08.982Z,3.50
2018-05-07T11:20:37.322Z,2.73
2018-05-07T11:23:06.883Z,3.30
2018-05-07T11:25:35.863Z,3.20
2018-05-07T11:28:04.467Z,3.60
2018-05-07T11:30:32.585Z,2.93
2018-05-07T11:33:00.862Z,4.10
2018-05-07T11:35:29.333Z,3.03
2018-05-07T11:37:58.393Z,3.47
2018-05-07T11:40:26.671Z,2.77
2018-05-07T11:42:55.681Z,3.20
2018-05-07T11:45:23.998Z,3.23
2018-05-07T11:47:52.274Z,3.70
2018-05-07T11:50:20.950Z,3.23
2018-05-07T11:52:49.502Z,3.77
2018-05-07T11:55:18.321Z,3.03
2018-05-07T11:57:46.626Z,3.27
2018-05-07T12:00:14.946Z,2.43
2018-05-07T12:02:43.235Z,3.30
2018-05-07T12:05:11.523Z,2.90
2018-05-07T12:07:39.857Z,3.07
2018-05-07T12:10:08.137Z,2.50
2018-05-07T12:12:36.878Z,3.60
2018-05-07T12:15:06.013Z,3.23
2018-05-07T12:17:34.342Z,3.07
2018-05-07T12:20:02.698Z,3.20
2018-05-07T12:22:31.010Z,3.10
2018-05-07T12:24:59.355Z,3.17
2018-05-07T12:27:27.638Z,3.37
2018-05-07T12:29:56.497Z,2.73
2018-05-07T12:32:25.599Z,2.97
2018-05-07T12:34:53.879Z,3.03
2018-05-07T12:37:22.206Z,2.70
2018-05-07T12:39:50.479Z,2.83
2018-05-07T12:42:18.750Z,3.17
2018-05-07T12:44:47.066Z,2.53
2018-05-07T12:47:15.531Z,2.63
2018-05-07T12:49:43.806Z,2.70
2018-05-07T12:52:12.119Z,3.07
2018-05-07T12:54:40.666Z,2.70
2018-05-07T12:57:08.952Z,2.73
2018-05-07T12:59:37.710Z,2.80
2018-05-07T13:02:05.995Z,2.83
2018-05-07T13:04:34.284Z,3.20
2018-05-07T13:07:03.113Z,2.93
2018-05-07T13:09:31.390Z,2.70
2018-05-07T13:11:59.670Z,2.40
2018-05-07T13:14:28.591Z,2.87
2018-05-07T13:16:56.879Z,2.80
2018-05-07T13:19:25.302Z,2.73
2018-05-07T13:21:54.406Z,2.70
2018-05-07T13:24:22.684Z,3.40
2018-05-07T13:26:51.336Z,2.60
2018-05-07T13:29:20.058Z,2.50
2018-05-07T13:31:48.816Z,2.57
2018-05-07T13:34:18.098Z,3.00
2018-05-07T13:36:46.423Z,3.20
2018-05-07T13:39:14.718Z,2.50
2018-05-07T13:41:43.104Z,2.47
2018-05-07T13:44:11.415Z,2.90
2018-05-07T13:46:40.293Z,3.63
2018-05-07T13:49:09.370Z,3.30
2018-05-07T13:51:38.467Z,4.40
2018-05-07T13:54:06.923Z,3.30
2018-05-07T13:56:35.247Z,3.63
2018-05-07T13:59:03.523Z,3.27
2018-05-07T14:01:31.798Z,2.90
2018-05-07T14:04:00.670Z,2.60
2018-05-07T14:06:29.803Z,2.83
2018-05-07T14:08:59.883Z,2.50
2018-05-07T14:11:28.778Z,2.70
2018-05-07T14:13:56.469Z,2.33
2018-05-07T14:16:24.793Z,2.67
2018-05-07T14:18:53.078Z,5.00
2018-05-07T14:21:21.354Z,2.70
2018-05-07T14:23:50.220Z,2.43
2018-05-07T14:26:18.589Z,2.60
2018-05-07T14:28:46.888Z,3.03
2018-05-07T14:31:15.202Z,3.40
2018-05-07T14:33:43.487Z,3.40
2018-05-07T14:36:11.767Z,3.20
2018-05-07T14:38:40.121Z,2.90
2018-05-07T14:41:08.380Z,3.00
2018-05-07T14:43:36.688Z,3.03
2018-05-07T14:46:06.478Z,3.77
2018-05-07T14:48:35.107Z,3.07
2018-05-07T14:51:03.390Z,2.90
2018-05-07T14:53:31.715Z,2.60
2018-05-07T14:55:59.992Z,2.60
2018-05-07T14:58:29.786Z,2.63
2018-05-07T15:00:59.200Z,2.57
2018-05-07T15:03:27.906Z,2.50
2018-05-07T15:05:56.190Z,4.23
2018-05-07T15:08:24.491Z,3.23
2018-05-07T15:10:52.775Z,2.60
2018-05-07T15:13:21.166Z,3.13
2018-05-07T15:15:49.378Z,2.73
2018-05-07T15:18:17.654Z,2.93
2018-05-07T15:20:46.855Z,3.20
2018-05-07T15:23:15.443Z,2.90
2018-05-07T15:25:43.680Z,3.20
2018-05-07T15:28:12.626Z,2.80
2018-05-07T15:30:41.493Z,3.87
2018-05-07T15:33:09.775Z,2.83
2018-05-07T15:35:38.059Z,2.67
2018-05-07T15:38:07.515Z,3.03
2018-05-07T15:40:36.727Z,3.00
2018-05-07T15:43:05.770Z,3.10
2018-05-07T15:45:34.758Z,3.30
2018-05-07T15:48:03.043Z,3.33
2018-05-07T15:50:32.130Z,3.00
2018-05-07T15:53:01.319Z,3.17
2018-05-07T15:55:29.598Z,2.80
2018-05-07T15:57:57.982Z,3.10
2018-05-07T16:00:27.737Z,3.10
2018-05-07T16:02:56.153Z,3.70
2018-05-07T16:05:24.691Z,3.00
2018-05-07T16:07:53.927Z,3.17
2018-05-07T16:10:23.018Z,3.43
2018-05-07T16:12:51.762Z,3.60
2018-05-07T16:15:20.396Z,3.17
2018-05-07T16:17:49.058Z,3.33
2018-05-07T16:20:17.730Z,3.00
2018-05-07T16:22:46.475Z,3.33
2018-05-07T16:25:15.130Z,3.10
2018-05-07T16:27:43.409Z,3.47
2018-05-07T16:30:12.458Z,3.40
2018-05-07T16:32:40.779Z,3.50
2018-05-07T16:35:09.180Z,3.40
2018-05-07T16:37:37.509Z,3.77
2018-05-07T16:40:05.811Z,3.60
2018-05-07T16:42:34.858Z,3.17
2018-05-07T16:45:03.753Z,3.90
2018-05-07T16:47:32.804Z,3.57
2018-05-07T16:50:04.529Z,3.50
2018-05-07T16:52:34.379Z,3.70
2018-05-07T16:55:03.349Z,3.53
2018-05-07T17:00:31.586Z,3.50
2018-05-07T17:03:01.372Z,3.50
2018-05-07T17:05:29.647Z,3.53
2018-05-07T17:07:58.243Z,3.93
2018-05-07T17:10:27.543Z,3.87
2018-05-07T17:12:56.078Z,4.57
2018-05-07T17:15:24.358Z,3.90
2018-05-07T17:17:52.676Z,3.80
2018-05-07T17:20:20.956Z,3.80
2018-05-07T17:22:50.139Z,3.63
2018-05-07T17:25:18.455Z,3.23
2018-05-07T17:27:46.813Z,3.87
2018-05-07T17:30:15.091Z,4.10
2018-05-07T17:32:43.676Z,4.17
2018-05-07T17:35:11.958Z,8.43
2018-05-07T17:37:41.095Z,3.50
2018-05-07T17:40:10.208Z,3.60
2018-05-07T17:42:38.470Z,3.67
2018-05-07T17:58:47.619Z,3.70
2018-05-07T18:01:16.512Z,3.97
2018-05-07T18:03:44.906Z,3.87
2018-05-07T18:06:14.003Z,4.50
2018-05-07T18:08:42.910Z,4.70
2018-05-07T18:11:11.193Z,7.20
2018-05-07T18:13:39.886Z,3.87
2018-05-07T18:16:09.575Z,3.53
2018-05-07T18:18:38.114Z,4.00
2018-05-07T18:21:06.395Z,4.40
2018-05-07T18:23:35.427Z,4.10
2018-05-07T18:26:03.758Z,3.87
2018-05-07T18:28:32.795Z,3.70
2018-05-07T18:31:01.086Z,3.60
2018-05-07T18:33:30.244Z,9.70
2018-05-07T18:35:58.707Z,6.43
2018-05-07T18:38:26.999Z,7.10
2018-05-07T18:40:55.310Z,6.90
2018-05-07T18:43:24.099Z,3.10
2018-05-07T18:45:53.188Z,4.43
2018-05-07T18:48:21.514Z,3.60
2018-05-07T18:50:49.818Z,4.27
2018-05-07T18:53:18.415Z,3.53
2018-05-07T18:55:47.007Z,3.87
2018-05-07T18:58:16.608Z,4.13
2018-05-07T19:00:45.230Z,4.00
2018-05-07T19:03:14.457Z,3.60
2018-05-07T19:05:43.095Z,4.27
2018-05-07T19:08:12.271Z,4.40
2018-05-07T19:10:41.702Z,4.80
2018-05-07T19:13:09.979Z,4.80
2018-05-07T19:15:38.706Z,5.20
2018-05-07T19:18:07.546Z,4.20
2018-05-07T19:20:35.846Z,5.50
2018-05-07T19:23:04.415Z,5.23
2018-05-07T19:25:33.485Z,6.13
2018-05-07T19:28:02.338Z,6.27
2018-05-07T19:30:30.623Z,5.77
2018-05-07T19:32:58.906Z,5.20
2018-05-07T19:35:27.722Z,4.07
2018-05-07T19:37:55.998Z,4.77
2018-05-07T19:40:24.678Z,4.40
2018-05-07T19:42:53.558Z,4.90
2018-05-07T19:45:22.671Z,3.83
2018-05-07T19:47:51.596Z,4.13
2018-05-07T19:50:21.703Z,4.80
2018-05-07T19:52:50.286Z,5.87
2018-05-07T19:55:20.711Z,4.70
2018-05-07T19:57:48.999Z,4.13
2018-05-07T20:00:18.094Z,5.13
2018-05-07T20:02:46.426Z,4.50
2018-05-07T20:05:15.032Z,4.80
2018-05-07T20:07:43.845Z,4.80
2018-05-07T20:10:12.675Z,11.00
2018-05-07T20:12:41.045Z,4.20
2018-05-07T20:15:09.537Z,4.37
2018-05-07T20:17:37.820Z,5.50
2018-05-07T20:20:06.205Z,4.50
2018-05-07T20:22:34.420Z,5.00
2018-05-07T20:25:02.859Z,5.37
2018-05-07T20:27:31.182Z,5.17
2018-05-07T20:29:59.466Z,4.87
2018-05-07T20:32:28.833Z,5.13
2018-05-07T20:34:58.871Z,5.10
2018-05-07T20:37:28.247Z,4.40
2018-05-07T20:39:56.614Z,4.53
2018-05-07T20:42:25.326Z,4.87
2018-05-07T20:44:54.490Z,4.80
2018-05-07T20:47:22.826Z,5.00
2018-05-07T20:49:51.462Z,4.93
2018-05-07T20:52:20.297Z,4.87
2018-05-07T20:54:48.854Z,4.30
2018-05-07T20:57:17.134Z,4.40
2018-05-07T20:59:45.690Z,4.60
2018-05-07T21:02:14.929Z,5.10
2018-05-07T21:04:43.847Z,5.07
2018-05-07T21:07:13.575Z,4.33
2018-05-07T21:09:42.526Z,4.50
2018-05-07T21:12:11.579Z,5.70
2018-05-07T21:14:39.904Z,5.70
2018-05-07T21:17:08.991Z,5.80
2018-05-07T21:19:37.332Z,5.47
2018-05-07T21:22:05.612Z,5.60
2018-05-07T21:24:33.980Z,5.33
2018-05-07T21:27:02.764Z,4.80
2018-05-07T21:29:31.159Z,5.20
2018-05-07T21:32:00.163Z,5.20
2018-05-07T21:34:28.448Z,5.17
2018-05-07T21:36:56.854Z,5.03
2018-05-07T21:39:25.178Z,5.80
2018-05-07T21:41:53.458Z,5.27
2018-05-07T21:44:21.819Z,4.53
2018-05-07T21:46:50.198Z,5.30
2018-05-07T21:49:19.143Z,5.13
2018-05-07T21:51:48.423Z,5.43
2018-05-07T21:54:17.940Z,4.60
2018-05-07T21:56:46.227Z,4.57
2018-05-07T21:59:14.703Z,5.03
2018-05-07T22:01:44.307Z,4.87
2018-05-07T22:04:14.442Z,4.80
2018-05-07T22:06:43.535Z,3.93
2018-05-07T22:09:12.407Z,5.00
2018-05-07T22:11:40.952Z,5.53
2018-05-07T22:14:10.149Z,5.30
2018-05-07T22:16:39.194Z,4.80
2018-05-07T22:19:07.466Z,4.27
2018-05-07T22:21:36.283Z,5.10
2018-05-07T22:24:04.565Z,5.40
2018-05-07T22:26:32.955Z,5.20
2018-05-07T22:29:01.558Z,5.50
2018-05-07T22:31:29.839Z,5.60
2018-05-07T22:33:59.282Z,5.80
2018-05-07T22:36:27.606Z,4.90
2018-05-07T22:38:56.322Z,5.03
2018-05-07T22:41:24.594Z,5.47
2018-05-07T22:43:52.891Z,5.00
2018-05-07T22:46:21.225Z,4.40
2018-05-07T22:48:49.493Z,6.13
2018-05-07T22:51:18.346Z,5.57
2018-05-07T22:53:46.643Z,4.90
2018-05-07T22:56:14.922Z,4.87
2018-05-07T22:58:43.222Z,5.00
2018-05-07T23:01:11.791Z,4.50
2018-05-07T23:03:40.068Z,4.77
2018-05-07T23:06:09.535Z,4.97
2018-05-07T23:08:37.810Z,4.20
2018-05-07T23:11:06.322Z,5.00
2018-05-07T23:13:34.603Z,5.43
2018-05-07T23:16:03.931Z,4.17
2018-05-07T23:18:32.215Z,4.63
2018-05-07T23:21:00.501Z,5.20
2018-05-07T23:23:28.778Z,4.70
2018-05-07T23:25:57.270Z,4.80
2018-05-07T23:28:25.542Z,4.53
2018-05-07T23:30:54.469Z,4.83
2018-05-07T23:33:22.887Z,4.80
2018-05-07T23:35:51.166Z,5.30
2018-05-07T23:38:20.134Z,5.00
2018-05-07T23:40:48.475Z,4.17
2018-05-07T23:43:17.426Z,4.87
2018-05-07T23:45:45.706Z,4.47
2018-05-07T23:48:14.010Z,5.20
2018-05-07T23:50:42.322Z,5.63
2018-05-07T23:53:11.119Z,5.50
2018-05-07T23:55:39.438Z,5.60
2018-05-07T23:58:07.755Z,6.20
